createdAt,value
2018-01-13T00:00:33.542Z,48.80
2018-01-13T00:03:01.937Z,51.30
2018-01-13T00:05:30.392Z,49.73
2018-01-13T00:07:58.749Z,48.17
2018-01-13T00:10:27.372Z,50.40
2018-01-13T00:12:55.703Z,50.97
2018-01-13T00:15:24.298Z,52.07
2018-01-13T00:17:52.645Z,52.60
2018-01-13T00:20:21.912Z,52.00
2018-01-13T00:22:50.345Z,50.00
2018-01-13T00:25:18.761Z,50.67
2018-01-13T00:27:47.092Z,49.50
2018-01-13T00:30:15.508Z,53.93
2018-01-13T00:32:43.956Z,51.57
2018-01-13T00:35:12.288Z,54.83
2018-01-13T00:37:40.677Z,55.17
2018-01-13T00:40:09.859Z,53.70
2018-01-13T00:42:38.261Z,52.90
2018-01-13T00:45:07.371Z,52.33
2018-01-13T00:47:35.775Z,51.20
2018-01-13T00:50:04.213Z,53.63
2018-01-13T00:52:33.319Z,54.60
2018-01-13T00:55:02.405Z,54.10
2018-01-13T00:57:31.655Z,51.17
2018-01-13T01:00:00.067Z,52.50
2018-01-13T01:02:29.176Z,52.13
2018-01-13T01:04:57.542Z,51.40
2018-01-13T01:07:25.942Z,52.20
2018-01-13T01:09:54.419Z,48.83
2018-01-13T01:12:23.576Z,56.43
2018-01-13T01:14:51.982Z,51.00
2018-01-13T01:17:21.186Z,53.37
2018-01-13T01:19:50.346Z,51.20
2018-01-13T01:22:18.712Z,53.63
2018-01-13T01:24:47.101Z,52.00
2018-01-13T01:27:15.586Z,55.93
2018-01-13T01:29:44.013Z,52.87
2018-01-13T01:32:13.170Z,49.63
2018-01-13T01:34:41.568Z,52.47
2018-01-13T01:37:09.958Z,52.03
2018-01-13T01:39:39.078Z,53.17
2018-01-13T01:42:07.508Z,51.37
2018-01-13T01:44:35.853Z,52.97
2018-01-13T01:47:04.250Z,53.27
2018-01-13T01:49:32.663Z,53.27
2018-01-13T01:52:01.810Z,51.43
2018-01-13T01:54:30.273Z,50.40
2018-01-13T01:56:58.717Z,49.00
2018-01-13T01:59:27.831Z,52.90
2018-01-13T02:01:56.947Z,52.10
2018-01-13T02:04:25.279Z,52.27
2018-01-13T02:06:53.705Z,51.33
2018-01-13T02:09:22.071Z,51.00
2018-01-13T02:11:50.399Z,52.60
2018-01-13T02:14:18.746Z,49.10
2018-01-13T02:16:47.169Z,51.60
2018-01-13T02:19:15.578Z,53.20
2018-01-13T02:21:43.932Z,52.77
2018-01-13T02:24:12.585Z,51.00
2018-01-13T02:26:41.013Z,50.83
2018-01-13T02:29:09.383Z,51.40
2018-01-13T02:31:38.537Z,48.10
2018-01-13T02:34:06.930Z,50.80
2018-01-13T02:36:35.265Z,53.80
2018-01-13T02:39:03.690Z,51.40
2018-01-13T02:41:32.098Z,55.03
2018-01-13T02:44:00.471Z,49.77
2018-01-13T02:46:29.604Z,51.33
2018-01-13T02:48:57.947Z,53.37
2018-01-13T02:51:27.051Z,53.00
2018-01-13T02:53:56.223Z,54.83
2018-01-13T02:56:24.628Z,54.30
2018-01-13T02:58:53.060Z,53.77
2018-01-13T03:01:21.527Z,57.63
2018-01-13T03:03:49.943Z,58.83
2018-01-13T03:06:19.047Z,54.17
2018-01-13T03:08:48.257Z,55.83
2018-01-13T03:11:17.421Z,54.87
2018-01-13T03:13:45.762Z,50.30
2018-01-13T03:16:14.193Z,54.20
2018-01-13T03:18:43.343Z,49.80
2018-01-13T03:21:11.749Z,51.27
2018-01-13T03:23:40.195Z,53.83
2018-01-13T03:26:08.596Z,52.07
2018-01-13T03:28:36.997Z,50.30
2018-01-13T03:31:05.426Z,51.53
2018-01-13T03:33:33.826Z,49.13
2018-01-13T03:36:02.262Z,51.57
2018-01-13T03:38:30.594Z,52.10
2018-01-13T03:40:58.993Z,55.63
2018-01-13T03:43:27.427Z,51.80
2018-01-13T03:45:55.826Z,53.60
2018-01-13T03:48:24.243Z,56.00
2018-01-13T03:50:53.404Z,51.37
2018-01-13T03:53:21.799Z,52.70
2018-01-13T03:55:50.136Z,57.50
2018-01-13T03:58:18.572Z,53.20
2018-01-13T04:00:47.690Z,49.93
2018-01-13T04:03:16.008Z,51.97
2018-01-13T04:05:44.557Z,51.50
2018-01-13T04:08:12.919Z,49.50
2018-01-13T04:10:42.063Z,52.77
2018-01-13T04:13:10.482Z,51.60
2018-01-13T04:15:39.607Z,49.03
2018-01-13T04:18:08.091Z,52.10
2018-01-13T04:20:36.427Z,53.97
2018-01-13T04:23:04.817Z,52.03
2018-01-13T04:25:34.110Z,54.90
2018-01-13T04:28:03.204Z,54.60
2018-01-13T04:30:31.593Z,50.97
2018-01-13T04:33:00.731Z,56.80
2018-01-13T04:35:29.085Z,58.33
2018-01-13T04:37:57.412Z,58.17
2018-01-13T04:40:25.827Z,54.90
2018-01-13T04:42:54.993Z,54.80
2018-01-13T04:45:23.398Z,59.67
2018-01-13T04:47:52.546Z,59.00
2018-01-13T04:50:20.951Z,56.90
2018-01-13T04:52:49.381Z,58.47
2018-01-13T04:55:17.727Z,59.23
2018-01-13T04:57:47.003Z,58.43
2018-01-13T05:00:15.401Z,60.90
2018-01-13T05:02:44.554Z,54.17
2018-01-13T05:05:12.997Z,59.00
2018-01-13T05:07:41.398Z,56.70
2018-01-13T05:10:09.789Z,54.70
2018-01-13T05:12:38.204Z,55.50
2018-01-13T05:15:06.609Z,56.90
2018-01-13T05:17:35.723Z,55.03
2018-01-13T05:20:04.074Z,56.00
2018-01-13T05:22:33.180Z,56.23
2018-01-13T05:25:02.415Z,56.73
2018-01-13T05:27:30.856Z,57.77
2018-01-13T05:29:59.953Z,58.10
2018-01-13T05:32:29.151Z,59.10
2018-01-13T05:34:57.487Z,58.90
2018-01-13T05:37:25.909Z,58.30
2018-01-13T05:39:54.884Z,57.27
2018-01-13T05:42:24.237Z,57.60
2018-01-13T05:44:52.730Z,56.33
2018-01-13T05:47:21.070Z,60.00
2018-01-13T05:49:49.431Z,58.47
2018-01-13T05:52:18.674Z,57.43
2018-01-13T05:54:47.075Z,62.33
2018-01-13T05:57:15.409Z,63.17
2018-01-13T05:59:43.952Z,57.33
2018-01-13T06:02:12.296Z,55.40
2018-01-13T06:04:40.627Z,59.50
2018-01-13T06:07:09.805Z,52.30
2018-01-13T06:09:38.139Z,57.97
2018-01-13T06:12:06.468Z,56.23
2018-01-13T06:14:35.605Z,57.00
2018-01-13T06:17:04.014Z,55.10
2018-01-13T06:19:32.413Z,59.83
2018-01-13T06:22:01.633Z,55.20
2018-01-13T06:24:29.966Z,57.37
2018-01-13T06:26:58.287Z,56.87
2018-01-13T06:29:27.476Z,58.67
2018-01-13T06:31:56.659Z,59.10
2018-01-13T06:34:26.033Z,55.93
2018-01-13T06:36:54.395Z,55.70
2018-01-13T06:39:22.794Z,60.33
2018-01-13T06:41:51.265Z,58.67
2018-01-13T06:44:19.717Z,58.87
2018-01-13T06:46:48.050Z,56.13
2018-01-13T06:49:16.434Z,59.80
2018-01-13T06:51:44.846Z,57.87
2018-01-13T06:54:13.282Z,53.20
2018-01-13T06:56:41.739Z,60.40
2018-01-13T06:59:10.104Z,56.07
2018-01-13T07:01:38.444Z,55.43
2018-01-13T07:04:07.835Z,57.73
2018-01-13T07:06:37.008Z,56.80
2018-01-13T07:09:05.386Z,56.07
2018-01-13T07:11:33.858Z,55.53
2018-01-13T07:14:02.216Z,58.00
2018-01-13T07:16:30.727Z,55.43
2018-01-13T07:18:59.122Z,56.03
2018-01-13T07:21:28.290Z,56.67
2018-01-13T07:23:56.745Z,54.40
2018-01-13T07:26:25.146Z,54.57
2018-01-13T07:28:53.575Z,54.97
2018-01-13T07:31:21.952Z,56.73
2018-01-13T07:33:51.115Z,57.17
2018-01-13T07:36:19.510Z,55.90
2018-01-13T07:38:48.723Z,54.43
2018-01-13T07:41:17.841Z,54.83
2018-01-13T07:43:46.176Z,59.67
2018-01-13T07:46:16.179Z,56.53
2018-01-13T07:48:44.580Z,57.87
2018-01-13T07:51:13.740Z,55.70
2018-01-13T07:53:42.170Z,56.90
2018-01-13T07:56:11.281Z,54.67
2018-01-13T07:58:39.804Z,54.17
2018-01-13T08:01:08.254Z,55.40
2018-01-13T08:03:36.662Z,54.00
2018-01-13T08:06:05.065Z,54.90
2018-01-13T08:08:34.317Z,55.90
2018-01-13T08:11:03.592Z,55.57
2018-01-13T08:13:32.174Z,55.67
2018-01-13T08:16:00.755Z,55.37
2018-01-13T08:18:29.123Z,56.87
2018-01-13T08:20:58.392Z,57.20
2018-01-13T08:23:28.338Z,55.90
2018-01-13T08:25:57.463Z,54.10
2018-01-13T08:28:25.874Z,54.83
2018-01-13T08:30:54.329Z,53.63
2018-01-13T08:33:22.718Z,56.07
2018-01-13T08:35:51.190Z,55.40
2018-01-13T08:38:19.645Z,59.37
2018-01-13T08:40:48.042Z,56.97
2018-01-13T08:43:16.464Z,61.23
2018-01-13T08:45:44.850Z,58.30
2018-01-13T08:48:13.303Z,63.03
2018-01-13T08:50:41.706Z,58.93
2018-01-13T08:53:10.192Z,60.37
2018-01-13T08:55:38.618Z,59.50
2018-01-13T08:58:06.973Z,62.13
2018-01-13T09:00:35.534Z,60.33
2018-01-13T09:03:04.712Z,60.23
2018-01-13T09:05:33.321Z,57.43
2018-01-13T09:08:02.459Z,58.20
2018-01-13T09:10:30.782Z,66.00
2018-01-13T09:12:59.173Z,63.13
2018-01-13T09:15:28.344Z,59.70
2018-01-13T09:17:56.831Z,61.80
2018-01-13T09:20:25.518Z,59.57
2018-01-13T09:22:53.922Z,63.73
2018-01-13T09:25:23.084Z,58.90
2018-01-13T09:27:51.890Z,63.23
2018-01-13T09:30:20.313Z,60.83
2018-01-13T09:32:48.810Z,63.77
2018-01-13T09:35:17.238Z,66.43
2018-01-13T09:37:46.442Z,61.33
2018-01-13T09:40:14.872Z,65.87
2018-01-13T09:42:43.305Z,60.23
2018-01-13T09:45:11.724Z,62.17
2018-01-13T09:47:40.276Z,60.63
2018-01-13T09:50:09.621Z,60.40
2018-01-13T09:52:38.118Z,61.00
2018-01-13T09:55:06.834Z,57.60
2018-01-13T09:57:35.204Z,57.73
2018-01-13T10:00:03.595Z,58.70
2018-01-13T10:02:32.119Z,59.20
2018-01-13T10:05:01.068Z,61.03
2018-01-13T10:07:29.606Z,60.13
2018-01-13T10:09:58.031Z,55.20
2018-01-13T10:12:27.183Z,59.50
2018-01-13T10:14:55.614Z,53.60
2018-01-13T10:17:23.984Z,56.33
2018-01-13T10:19:53.277Z,55.60
2018-01-13T10:22:22.389Z,54.17
2018-01-13T10:24:51.583Z,56.60
2018-01-13T10:27:19.964Z,56.10
2018-01-13T10:29:49.135Z,56.03
2018-01-13T10:32:18.243Z,59.60
2018-01-13T10:34:47.370Z,56.57
2018-01-13T10:37:15.702Z,57.33
2018-01-13T10:39:44.340Z,58.20
2018-01-13T10:42:12.712Z,52.47
2018-01-13T10:44:41.140Z,55.00
2018-01-13T10:47:09.598Z,52.90
2018-01-13T10:49:38.023Z,51.70
2018-01-13T10:52:07.183Z,47.90
2018-01-13T10:54:37.443Z,47.07
2018-01-13T10:57:06.597Z,46.77
2018-01-13T10:59:34.939Z,47.40
2018-01-13T11:02:03.275Z,48.33
2018-01-13T11:04:31.660Z,44.03
2018-01-13T11:06:59.995Z,42.33
2018-01-13T11:09:28.445Z,42.30
2018-01-13T11:11:56.947Z,37.47
2018-01-13T11:14:26.184Z,32.50
2018-01-13T11:16:55.385Z,30.87
2018-01-13T11:19:23.729Z,27.10
2018-01-13T11:21:52.135Z,25.30
2018-01-13T11:24:20.586Z,25.20
2018-01-13T11:26:48.957Z,22.27
2018-01-13T11:29:17.348Z,23.20
2018-01-13T11:31:45.768Z,21.80
2018-01-13T11:34:14.867Z,22.30
2018-01-13T11:36:44.001Z,21.93
2018-01-13T11:39:12.416Z,21.73
2018-01-13T11:41:40.817Z,21.73
2018-01-13T11:44:09.954Z,20.87
2018-01-13T11:46:38.322Z,20.27
2018-01-13T11:49:06.734Z,20.80
2018-01-13T11:51:35.072Z,20.77
2018-01-13T11:54:04.259Z,20.33
2018-01-13T11:56:33.361Z,16.70
2018-01-13T11:59:01.723Z,17.27
2018-01-13T12:01:30.055Z,17.23
2018-01-13T12:03:58.442Z,17.83
2018-01-13T12:06:26.803Z,17.40
2018-01-13T12:08:55.194Z,16.37
2018-01-13T12:11:24.323Z,16.60
2018-01-13T12:13:52.741Z,16.40
2018-01-13T12:16:21.076Z,16.10
2018-01-13T12:18:49.393Z,16.47
2018-01-13T12:21:17.732Z,16.90
2018-01-13T12:23:46.058Z,17.67
2018-01-13T12:26:14.443Z,18.33
2018-01-13T12:28:42.811Z,18.73
2018-01-13T12:31:11.224Z,19.30
2018-01-13T12:33:41.067Z,18.63
2018-01-13T12:36:10.171Z,17.90
2018-01-13T12:38:39.375Z,18.40
2018-01-13T12:41:08.590Z,17.50
2018-01-13T12:43:36.975Z,17.20
2018-01-13T12:46:05.311Z,17.07
2018-01-13T12:48:33.703Z,18.23
2018-01-13T12:51:02.069Z,21.03
2018-01-13T12:53:30.429Z,18.50
2018-01-13T12:55:58.851Z,20.37
2018-01-13T12:58:27.223Z,19.30
2018-01-13T13:00:56.383Z,21.07
2018-01-13T13:03:24.745Z,20.27
2018-01-13T13:05:53.237Z,20.10
2018-01-13T13:08:21.571Z,20.67
2018-01-13T13:10:49.887Z,18.37
2018-01-13T13:13:18.270Z,19.63
2018-01-13T13:15:46.601Z,19.83
2018-01-13T13:18:14.957Z,19.30
2018-01-13T13:20:44.138Z,18.87
2018-01-13T13:23:13.307Z,20.20
2018-01-13T13:25:41.727Z,20.00
2018-01-13T13:28:10.923Z,18.33
2018-01-13T13:30:40.108Z,18.53
2018-01-13T13:33:08.445Z,18.17
2018-01-13T13:35:36.862Z,16.20
2018-01-13T13:38:05.268Z,18.60
2018-01-13T13:40:33.607Z,18.27
2018-01-13T13:43:02.066Z,17.13
2018-01-13T13:45:30.482Z,18.90
2018-01-13T13:47:59.621Z,19.17
2018-01-13T13:50:27.979Z,17.77
2018-01-13T13:52:57.185Z,17.50
2018-01-13T13:55:25.576Z,18.57
2018-01-13T13:57:54.079Z,16.87
2018-01-13T14:00:22.418Z,16.53
2018-01-13T14:02:50.764Z,15.73
2018-01-13T14:05:19.198Z,16.47
2018-01-13T14:07:47.528Z,17.10
2018-01-13T14:10:16.646Z,17.67
2018-01-13T14:12:45.834Z,15.60
2018-01-13T14:15:15.097Z,16.93
2018-01-13T14:17:43.424Z,15.07
2018-01-13T14:20:12.298Z,15.90
2018-01-13T14:22:40.706Z,18.10
2018-01-13T14:25:09.048Z,17.57
2018-01-13T14:27:38.228Z,19.63
2018-01-13T14:30:06.647Z,27.20
2018-01-13T14:32:35.065Z,18.23
2018-01-13T14:35:03.439Z,15.00
2018-01-13T14:37:31.861Z,15.47
2018-01-13T14:40:01.050Z,15.70
2018-01-13T14:42:30.221Z,14.70
2018-01-13T14:44:58.601Z,14.60
2018-01-13T14:47:26.990Z,14.80
2018-01-13T14:49:55.333Z,17.00
2018-01-13T14:52:23.752Z,15.67
2018-01-13T14:54:52.160Z,16.17
2018-01-13T14:57:20.516Z,16.13
2018-01-13T14:59:48.922Z,16.87
2018-01-13T15:02:17.252Z,16.10
2018-01-13T15:04:45.860Z,18.17
2018-01-13T15:07:14.309Z,15.90
2018-01-13T15:09:42.716Z,16.97
2018-01-13T15:12:11.894Z,14.90
2018-01-13T15:14:40.286Z,14.03
2018-01-13T15:17:08.834Z,15.83
2018-01-13T15:19:37.206Z,15.40
2018-01-13T15:22:05.544Z,16.20
2018-01-13T15:24:34.643Z,15.70
2018-01-13T15:27:03.752Z,16.07
2018-01-13T15:29:32.103Z,16.20
2018-01-13T15:32:01.298Z,16.50
2018-01-13T15:34:29.647Z,16.10
2018-01-13T15:36:58.053Z,17.90
2018-01-13T15:39:27.272Z,17.00
2018-01-13T15:41:55.600Z,16.30
2018-01-13T15:44:24.007Z,16.97
2018-01-13T15:46:53.120Z,16.20
2018-01-13T15:49:22.276Z,17.50
2018-01-13T15:51:50.622Z,17.70
2018-01-13T15:54:19.127Z,20.40
2018-01-13T15:56:47.546Z,18.83
2018-01-13T15:59:16.771Z,19.97
2018-01-13T16:01:45.204Z,19.40
2018-01-13T16:04:14.348Z,17.17
2018-01-13T16:06:42.740Z,17.80
2018-01-13T16:09:11.173Z,18.40
2018-01-13T16:11:40.286Z,16.97
2018-01-13T16:14:09.420Z,16.00
2018-01-13T16:16:37.894Z,17.10
2018-01-13T16:19:06.309Z,18.63
2018-01-13T16:21:34.713Z,19.97
2018-01-13T16:24:03.147Z,18.90
2018-01-13T16:26:31.544Z,18.93
2018-01-13T16:28:59.880Z,18.57
2018-01-13T16:31:28.237Z,18.43
2018-01-13T16:33:57.395Z,16.67
2018-01-13T16:36:25.814Z,17.17
2018-01-13T16:38:54.269Z,18.20
2018-01-13T16:41:23.371Z,20.00
2018-01-13T16:43:51.743Z,17.60
2018-01-13T16:46:20.100Z,19.87
2018-01-13T16:48:48.548Z,18.20
2018-01-13T16:51:16.996Z,17.90
2018-01-13T16:53:46.187Z,19.70
2018-01-13T16:56:15.302Z,20.13
2018-01-13T16:58:43.930Z,19.83
2018-01-13T17:01:12.275Z,16.03
2018-01-13T17:03:40.779Z,18.40
2018-01-13T17:06:09.182Z,17.90
2018-01-13T17:08:37.579Z,17.50
2018-01-13T17:11:06.705Z,18.27
2018-01-13T17:13:35.125Z,20.07
2018-01-13T17:16:03.526Z,18.57
2018-01-13T17:18:31.872Z,18.13
2018-01-13T17:21:00.313Z,22.10
2018-01-13T17:23:28.651Z,18.00
2018-01-13T17:25:56.983Z,18.40
2018-01-13T17:28:25.371Z,18.77
2018-01-13T17:30:53.772Z,19.37
2018-01-13T17:33:22.120Z,17.00
2018-01-13T17:35:50.629Z,16.20
2018-01-13T17:38:18.963Z,18.03
2018-01-13T17:40:47.288Z,20.53
2018-01-13T17:43:15.640Z,18.40
2018-01-13T17:45:44.047Z,17.00
2018-01-13T17:48:12.371Z,16.77
2018-01-13T17:50:41.595Z,19.33
2018-01-13T17:53:10.026Z,19.77
2018-01-13T17:55:38.494Z,18.07
2018-01-13T17:58:07.065Z,19.00
2018-01-13T18:00:35.475Z,19.80
2018-01-13T18:03:04.613Z,18.60
2018-01-13T18:05:33.009Z,18.00
2018-01-13T18:08:02.197Z,19.60
2018-01-13T18:10:30.555Z,17.63
2018-01-13T18:12:58.956Z,19.30
2018-01-13T18:15:27.348Z,18.90
2018-01-13T18:17:56.127Z,19.70
2018-01-13T18:20:24.461Z,20.37
2018-01-13T18:22:53.552Z,20.07
2018-01-13T18:25:22.742Z,22.33
2018-01-13T18:27:51.935Z,22.70
2018-01-13T18:30:21.075Z,19.33
2018-01-13T18:32:49.453Z,19.17
2018-01-13T18:35:17.839Z,19.07
2018-01-13T18:37:46.402Z,19.17
2018-01-13T18:40:14.777Z,19.07
2018-01-13T18:42:43.180Z,19.20
2018-01-13T18:45:11.579Z,22.33
2018-01-13T18:47:40.123Z,20.93
2018-01-13T18:50:08.451Z,18.00
2018-01-13T18:52:36.879Z,17.40
2018-01-13T18:55:05.385Z,20.50
2018-01-13T18:57:33.784Z,19.17
2018-01-13T19:00:02.117Z,20.43
2018-01-13T19:02:30.473Z,19.63
2018-01-13T19:04:59.580Z,19.03
2018-01-13T19:07:28.347Z,16.67
2018-01-13T19:09:57.459Z,16.77
2018-01-13T19:12:26.543Z,15.40
2018-01-13T19:14:57.243Z,14.90
2018-01-13T19:17:25.950Z,14.37
2018-01-13T19:19:54.324Z,14.50
2018-01-13T19:22:22.756Z,14.83
2018-01-13T19:24:51.164Z,15.93
2018-01-13T19:27:19.491Z,14.17
2018-01-13T19:29:48.705Z,15.10
2018-01-13T19:32:17.060Z,15.10
2018-01-13T19:34:46.180Z,13.33
2018-01-13T19:37:14.662Z,14.90
2018-01-13T19:39:43.061Z,15.67
2018-01-13T19:42:12.231Z,15.90
2018-01-13T19:44:40.586Z,14.93
2018-01-13T19:47:09.736Z,14.90
2018-01-13T19:49:38.922Z,15.70
2018-01-13T19:52:07.514Z,14.53
2018-01-13T19:54:35.861Z,16.00
2018-01-13T19:57:04.196Z,15.40
2018-01-13T19:59:32.934Z,16.37
2018-01-13T20:02:01.347Z,15.40
2018-01-13T20:04:29.785Z,15.10
2018-01-13T20:06:58.211Z,15.10
2018-01-13T20:09:26.576Z,15.53
2018-01-13T20:11:54.923Z,15.53
2018-01-13T20:14:23.322Z,15.17
2018-01-13T20:16:51.663Z,14.80
2018-01-13T20:19:20.017Z,16.13
2018-01-13T20:21:49.188Z,15.17
2018-01-13T20:24:17.520Z,14.67
2018-01-13T20:26:45.903Z,13.63
2018-01-13T20:29:14.318Z,13.80
2018-01-13T20:31:42.774Z,13.07
2018-01-13T20:34:11.316Z,13.60
2018-01-13T20:36:40.405Z,13.87
2018-01-13T20:39:09.569Z,12.10
2018-01-13T20:41:37.927Z,13.37
2018-01-13T20:44:06.250Z,13.50
2018-01-13T20:46:34.668Z,13.87
2018-01-13T20:49:03.079Z,13.47
2018-01-13T20:51:31.548Z,12.80
2018-01-13T20:53:59.990Z,12.80
2018-01-13T20:56:28.316Z,12.17
2018-01-13T20:58:56.717Z,11.83
2018-01-13T21:01:25.087Z,12.87
2018-01-13T21:03:53.499Z,12.20
2018-01-13T21:06:22.616Z,14.03
2018-01-13T21:08:51.012Z,13.00
2018-01-13T21:11:19.545Z,13.43
2018-01-13T21:13:47.875Z,12.83
2018-01-13T21:16:16.197Z,13.73
2018-01-13T21:18:44.622Z,13.10
2018-01-13T21:21:12.975Z,12.83
2018-01-13T21:23:41.374Z,13.10
2018-01-13T21:26:09.798Z,13.60
2018-01-13T21:28:38.239Z,12.53
2018-01-13T21:31:06.561Z,14.60
2018-01-13T21:33:35.004Z,14.77
2018-01-13T21:36:03.356Z,13.60
2018-01-13T21:38:31.746Z,14.43
2018-01-13T21:41:00.255Z,12.77
2018-01-13T21:43:28.591Z,13.77
2018-01-13T21:45:57.003Z,14.10
2018-01-13T21:48:25.427Z,15.23
2018-01-13T21:50:54.539Z,14.00
2018-01-13T21:53:23.762Z,13.77
2018-01-13T21:55:52.273Z,13.60
2018-01-13T21:58:20.689Z,15.73
2018-01-13T22:00:49.102Z,15.23
2018-01-13T22:03:17.463Z,15.17
2018-01-13T22:05:45.787Z,15.50
2018-01-13T22:08:14.200Z,17.40
2018-01-13T22:10:42.569Z,15.53
2018-01-13T22:13:11.142Z,14.97
2018-01-13T22:15:40.315Z,15.03
2018-01-13T22:18:08.656Z,15.87
2018-01-13T22:20:37.051Z,17.00
2018-01-13T22:23:05.498Z,16.40
2018-01-13T22:25:33.881Z,15.63
2018-01-13T22:28:03.074Z,17.23
2018-01-13T22:30:31.399Z,18.60
2018-01-13T22:32:59.866Z,16.30
2018-01-13T22:35:28.253Z,15.93
2018-01-13T22:37:56.709Z,15.60
2018-01-13T22:40:25.113Z,14.10
2018-01-13T22:42:53.452Z,15.30
2018-01-13T22:45:21.889Z,14.60
2018-01-13T22:47:50.259Z,16.67
2018-01-13T22:50:18.658Z,16.73
2018-01-13T22:52:47.106Z,15.20
2018-01-13T22:55:15.499Z,16.20
2018-01-13T22:57:43.892Z,16.17
2018-01-13T23:00:12.228Z,15.63
2018-01-13T23:02:40.586Z,15.10
2018-01-13T23:05:09.107Z,14.90
2018-01-13T23:07:37.442Z,15.07
2018-01-13T23:10:05.772Z,14.90
2018-01-13T23:12:34.218Z,14.37
2018-01-13T23:15:02.718Z,15.20
2018-01-13T23:17:31.127Z,13.70
2018-01-13T23:19:59.559Z,14.20
2018-01-13T23:22:27.967Z,15.27
2018-01-13T23:24:56.393Z,15.30
2018-01-13T23:27:25.577Z,16.43
2018-01-13T23:29:54.006Z,18.37
2018-01-13T23:32:22.346Z,18.23
2018-01-13T23:34:51.615Z,18.17
2018-01-13T23:37:20.064Z,20.27
2018-01-13T23:39:48.392Z,18.20
2018-01-13T23:42:17.555Z,17.77
2018-01-13T23:44:45.973Z,17.63
2018-01-13T23:47:15.146Z,19.27
2018-01-13T23:49:44.362Z,19.70
2018-01-13T23:52:13.548Z,18.10
2018-01-13T23:54:42.717Z,19.93
2018-01-13T23:57:11.047Z,18.40
2018-01-13T23:59:40.159Z,19.53
